createdAt,value
2022-10-10T00:01:37.453Z,100.00
2022-10-10T00:04:06.479Z,100.00
2022-10-10T00:06:34.763Z,100.00
2022-10-10T00:09:05.812Z,100.00
2022-10-10T00:11:35.470Z,100.00
2022-10-10T00:14:03.938Z,100.00
2022-10-10T00:16:32.115Z,100.00
2022-10-10T00:18:59.995Z,100.00
2022-10-10T00:21:28.898Z,100.00
2022-10-10T00:23:56.761Z,100.00
2022-10-10T00:26:24.884Z,100.00
2022-10-10T00:28:55.085Z,100.00
2022-10-10T00:31:23.106Z,100.00
2022-10-10T00:33:51.642Z,100.00
2022-10-10T00:36:21.455Z,100.00
2022-10-10T00:38:49.497Z,100.00
2022-10-10T00:41:17.978Z,100.00
2022-10-10T00:44:01.938Z,100.00
2022-10-10T00:46:29.798Z,100.00
2022-10-10T00:48:57.918Z,100.00
2022-10-10T00:51:26.046Z,100.00
2022-10-10T00:54:02.401Z,100.00
2022-10-10T00:56:46.717Z,100.00
2022-10-10T00:59:15.466Z,100.00
2022-10-10T01:01:43.548Z,100.00
2022-10-10T01:04:30.951Z,100.00
2022-10-10T01:07:00.889Z,100.00
2022-10-10T01:09:29.863Z,100.00
2022-10-10T01:12:20.028Z,100.00
2022-10-10T01:15:02.944Z,100.00
2022-10-10T01:17:37.581Z,100.00
2022-10-10T01:20:24.252Z,100.00
2022-10-10T01:23:29.501Z,100.00
2022-10-10T01:26:32.670Z,100.00
2022-10-10T01:29:18.601Z,100.00
2022-10-10T01:31:51.348Z,100.00
2022-10-10T01:34:37.921Z,100.00
2022-10-10T01:37:37.465Z,100.00
2022-10-10T01:40:20.451Z,100.00
2022-10-10T01:42:56.408Z,100.00
2022-10-10T01:45:25.505Z,100.00
2022-10-10T01:47:57.099Z,100.00
2022-10-10T01:50:26.845Z,100.00
2022-10-10T01:52:57.923Z,100.00
2022-10-10T01:55:44.419Z,100.00
2022-10-10T01:58:36.301Z,100.00
2022-10-10T02:01:11.621Z,100.00
2022-10-10T02:03:45.659Z,100.00
2022-10-10T02:06:25.655Z,100.00
2022-10-10T02:09:00.578Z,100.00
2022-10-10T02:11:35.509Z,100.00
2022-10-10T02:14:14.641Z,100.00
2022-10-10T02:16:50.032Z,100.00
2022-10-10T02:19:21.331Z,100.00
2022-10-10T02:21:52.820Z,100.00
2022-10-10T02:24:24.079Z,100.00
2022-10-10T02:27:18.538Z,100.00
2022-10-10T02:29:49.094Z,100.00
2022-10-10T02:32:26.253Z,100.00
2022-10-10T02:34:58.024Z,100.00
2022-10-10T02:37:27.756Z,100.00
2022-10-10T02:39:59.675Z,100.00
2022-10-10T02:42:29.441Z,100.00
2022-10-10T02:44:57.858Z,100.00
2022-10-10T02:47:25.928Z,100.00
2022-10-10T02:49:53.818Z,100.00
2022-10-10T02:52:21.893Z,100.00
2022-10-10T02:54:49.817Z,100.00
2022-10-10T02:57:17.777Z,100.00
2022-10-10T02:59:45.869Z,100.00
2022-10-10T03:02:13.790Z,100.00
2022-10-10T03:04:42.360Z,100.00
2022-10-10T03:07:10.889Z,100.00
2022-10-10T03:09:38.717Z,100.00
2022-10-10T03:12:06.652Z,100.00
2022-10-10T03:14:34.718Z,100.00
2022-10-10T03:17:02.822Z,100.00
2022-10-10T03:19:30.798Z,100.00
2022-10-10T03:21:58.760Z,100.00
2022-10-10T03:24:28.072Z,100.00
2022-10-10T03:26:56.038Z,100.00
2022-10-10T03:29:25.438Z,100.00
2022-10-10T03:31:53.839Z,100.00
2022-10-10T03:34:21.857Z,100.00
2022-10-10T03:36:49.956Z,100.00
2022-10-10T03:39:18.017Z,100.00
2022-10-10T03:41:45.893Z,100.00
2022-10-10T03:44:13.765Z,100.00
2022-10-10T03:46:42.767Z,100.00
2022-10-10T03:49:11.250Z,100.00
2022-10-10T03:51:39.504Z,100.00
2022-10-10T03:54:07.487Z,100.00
2022-10-10T03:56:35.510Z,100.00
2022-10-10T03:59:04.106Z,100.00
2022-10-10T04:01:33.820Z,100.00
2022-10-10T04:04:02.717Z,100.00
2022-10-10T04:06:31.057Z,100.00
2022-10-10T04:08:59.244Z,100.00
2022-10-10T04:11:27.912Z,100.00
2022-10-10T04:13:55.788Z,100.00
2022-10-10T04:16:23.708Z,100.00
2022-10-10T04:18:51.639Z,100.00
2022-10-10T04:21:19.609Z,100.00
2022-10-10T04:23:47.826Z,100.00
2022-10-10T04:26:15.868Z,100.00
2022-10-10T04:28:44.226Z,100.00
2022-10-10T04:31:12.266Z,100.00
2022-10-10T04:33:40.187Z,100.00
2022-10-10T04:36:08.364Z,100.00
2022-10-10T04:38:36.896Z,100.00
2022-10-10T04:41:05.908Z,100.00
2022-10-10T04:43:37.672Z,100.00
2022-10-10T04:46:05.835Z,100.00
2022-10-10T04:48:33.931Z,100.00
2022-10-10T04:51:03.203Z,100.00
2022-10-10T04:53:38.687Z,100.00
2022-10-10T04:56:07.472Z,100.00
2022-10-10T04:58:36.239Z,100.00
2022-10-10T05:01:06.954Z,100.00
2022-10-10T05:03:35.027Z,100.00
2022-10-10T05:06:03.261Z,100.00
2022-10-10T05:08:32.811Z,100.00
2022-10-10T05:11:00.911Z,100.00
2022-10-10T05:13:31.375Z,100.00
2022-10-10T05:16:00.557Z,100.00
2022-10-10T05:18:28.635Z,100.00
2022-10-10T05:21:01.045Z,100.00
2022-10-10T05:23:32.504Z,100.00
2022-10-10T05:26:01.084Z,100.00
2022-10-10T05:28:30.533Z,100.00
2022-10-10T05:30:59.223Z,100.00
2022-10-10T05:33:27.866Z,100.00
2022-10-10T05:36:11.070Z,100.00
2022-10-10T05:38:41.056Z,100.00
2022-10-10T05:41:12.653Z,100.00
2022-10-10T05:43:40.737Z,100.00
2022-10-10T05:46:08.679Z,100.00
2022-10-10T05:48:37.346Z,100.00
2022-10-10T05:51:07.882Z,100.00
2022-10-10T05:53:36.421Z,100.00
2022-10-10T05:56:04.938Z,100.00
2022-10-10T05:58:35.250Z,100.00
2022-10-10T06:01:32.634Z,100.00
2022-10-10T06:04:14.724Z,100.00
2022-10-10T06:06:53.562Z,100.00
2022-10-10T06:09:25.044Z,100.00
2022-10-10T06:12:00.371Z,100.00
2022-10-10T06:14:30.688Z,100.00
2022-10-10T06:17:02.779Z,100.00
2022-10-10T06:19:33.560Z,100.00
2022-10-10T06:22:04.273Z,100.00
2022-10-10T06:24:32.469Z,100.00
2022-10-10T06:27:02.244Z,100.00
2022-10-10T06:29:31.039Z,100.00
2022-10-10T06:32:01.269Z,100.00
2022-10-10T06:34:29.489Z,100.00
2022-10-10T06:36:57.641Z,100.00
2022-10-10T06:39:25.995Z,100.00
2022-10-10T06:41:54.895Z,100.00
2022-10-10T06:44:23.529Z,100.00
2022-10-10T06:46:52.769Z,100.00
2022-10-10T06:49:20.892Z,100.00
2022-10-10T06:51:49.432Z,100.00
2022-10-10T06:54:19.221Z,100.00
2022-10-10T06:56:50.899Z,100.00
2022-10-10T06:59:20.418Z,100.00
2022-10-10T07:01:48.741Z,100.00
2022-10-10T07:04:16.927Z,100.00
2022-10-10T07:06:46.385Z,100.00
2022-10-10T07:09:14.509Z,100.00
2022-10-10T07:11:45.933Z,100.00
2022-10-10T07:14:16.563Z,100.00
2022-10-10T07:16:45.462Z,100.00
2022-10-10T07:19:13.473Z,100.00
2022-10-10T07:21:41.672Z,100.00
2022-10-10T07:24:09.845Z,100.00
2022-10-10T07:26:38.677Z,100.00
2022-10-10T07:29:06.976Z,100.00
2022-10-10T07:31:36.558Z,100.00
2022-10-10T07:34:07.661Z,100.00
2022-10-10T07:36:36.239Z,100.00
2022-10-10T07:39:04.826Z,100.00
2022-10-10T07:41:33.096Z,100.00
2022-10-10T07:44:02.223Z,100.00
2022-10-10T07:46:33.681Z,100.00
2022-10-10T07:49:03.946Z,100.00
2022-10-10T07:51:32.797Z,100.00
2022-10-10T07:54:02.455Z,100.00
2022-10-10T07:56:32.211Z,100.00
2022-10-10T07:59:01.128Z,100.00
2022-10-10T08:01:30.617Z,100.00
2022-10-10T08:03:59.450Z,100.00
2022-10-10T08:06:27.497Z,100.00
2022-10-10T08:08:56.033Z,100.00
2022-10-10T08:11:29.052Z,100.00
2022-10-10T08:13:57.124Z,100.00
2022-10-10T08:16:25.168Z,100.00
2022-10-10T08:18:53.487Z,100.00
2022-10-10T08:21:21.668Z,100.00
2022-10-10T08:23:52.490Z,100.00
2022-10-10T08:26:20.778Z,100.00
2022-10-10T08:28:49.253Z,100.00
2022-10-10T08:31:21.241Z,100.00
2022-10-10T08:33:51.201Z,100.00
2022-10-10T08:36:22.187Z,100.00
2022-10-10T08:38:53.378Z,100.00
2022-10-10T08:41:36.610Z,100.00
2022-10-10T08:44:14.392Z,100.00
2022-10-10T08:47:04.292Z,100.00
2022-10-10T08:49:45.425Z,100.00
2022-10-10T08:52:53.908Z,100.00
2022-10-10T08:55:31.405Z,100.00
2022-10-10T08:57:59.601Z,100.00
2022-10-10T09:00:45.222Z,100.00
2022-10-10T09:03:26.563Z,100.00
2022-10-10T09:06:19.978Z,100.00
2022-10-10T09:08:53.983Z,100.00
2022-10-10T09:11:40.887Z,100.00
2022-10-10T09:14:45.585Z,100.00
2022-10-10T09:21:44.046Z,100.00
2022-10-10T09:24:43.566Z,100.00
2022-10-10T09:27:22.115Z,100.00
2022-10-10T09:29:56.987Z,100.00
2022-10-10T09:32:31.094Z,100.00
2022-10-10T09:35:06.478Z,100.00
2022-10-10T09:37:47.688Z,100.00
2022-10-10T09:40:39.119Z,100.00
2022-10-10T09:43:22.938Z,100.00
2022-10-10T09:46:00.015Z,100.00
2022-10-10T09:48:36.077Z,100.00
2022-10-10T09:51:07.632Z,100.00
2022-10-10T09:53:44.971Z,100.00
2022-10-10T09:56:22.826Z,100.00
2022-10-10T09:58:53.934Z,100.00
2022-10-10T10:01:26.383Z,100.00
2022-10-10T10:04:27.819Z,100.00
2022-10-10T10:07:07.646Z,100.00
2022-10-10T10:09:36.627Z,100.00
2022-10-10T10:12:05.625Z,100.00
2022-10-10T10:14:39.305Z,100.00
2022-10-10T10:17:16.024Z,100.00
2022-10-10T10:19:46.637Z,100.00
2022-10-10T10:22:40.628Z,100.00
2022-10-10T10:25:33.974Z,100.00
2022-10-10T10:28:14.293Z,100.00
2022-10-10T10:30:44.009Z,100.00
2022-10-10T10:33:33.429Z,100.00
2022-10-10T10:36:25.535Z,100.00
2022-10-10T10:39:20.269Z,100.00
2022-10-10T10:42:21.504Z,100.00
2022-10-10T10:45:01.425Z,100.00
2022-10-10T10:47:52.138Z,100.00
2022-10-10T10:50:27.356Z,100.00
2022-10-10T10:53:11.895Z,100.00
2022-10-10T10:56:08.979Z,100.00
2022-10-10T11:02:26.529Z,100.00
2022-10-10T11:05:39.912Z,100.00
2022-10-10T11:08:25.563Z,100.00
2022-10-10T11:11:16.926Z,100.00
2022-10-10T11:14:23.431Z,100.00
2022-10-10T11:16:59.039Z,100.00
2022-10-10T11:19:39.612Z,100.00
2022-10-10T11:22:23.876Z,100.00
2022-10-10T11:25:03.652Z,100.00
2022-10-10T11:27:47.241Z,100.00
2022-10-10T11:30:32.091Z,100.00
2022-10-10T11:33:19.314Z,100.00
2022-10-10T11:35:55.541Z,100.00
2022-10-10T11:38:45.070Z,100.00
2022-10-10T11:41:28.404Z,100.00
2022-10-10T11:44:30.651Z,100.00
2022-10-10T11:47:55.123Z,100.00
2022-10-10T11:50:35.157Z,100.00
2022-10-10T11:53:22.877Z,100.00
2022-10-10T11:56:19.940Z,100.00
2022-10-10T11:58:58.983Z,100.00
2022-10-10T12:01:33.879Z,100.00
2022-10-10T12:04:07.649Z,100.00
2022-10-10T12:07:11.672Z,100.00
2022-10-10T12:09:46.016Z,100.00
2022-10-10T12:12:21.246Z,100.00
2022-10-10T12:14:54.689Z,100.00
2022-10-10T12:17:40.475Z,100.00
2022-10-10T12:20:35.929Z,100.00
2022-10-10T12:23:14.350Z,100.00
2022-10-10T12:25:48.207Z,100.00
2022-10-10T12:28:25.581Z,100.00
2022-10-10T12:30:58.566Z,100.00
2022-10-10T12:33:34.046Z,100.00
2022-10-10T12:36:29.692Z,100.00
2022-10-10T12:39:18.925Z,100.00
2022-10-10T12:41:47.802Z,100.00
2022-10-10T12:44:53.682Z,100.00
2022-10-10T12:47:59.723Z,100.00
2022-10-10T12:51:12.878Z,98.70
2022-10-10T12:53:55.784Z,100.00
2022-10-10T12:56:59.140Z,99.37
2022-10-10T12:59:36.902Z,99.10
2022-10-10T13:02:22.876Z,93.70
2022-10-10T13:04:56.445Z,92.44
2022-10-10T13:07:25.693Z,89.38
2022-10-10T13:10:05.300Z,88.81
2022-10-10T13:12:45.952Z,85.32
2022-10-10T13:15:20.586Z,86.82
2022-10-10T13:17:49.805Z,87.73
2022-10-10T13:20:41.024Z,89.37
2022-10-10T13:23:21.575Z,88.26
2022-10-10T13:25:56.075Z,84.91
2022-10-10T13:28:25.460Z,83.96
2022-10-10T13:30:55.857Z,83.52
2022-10-10T13:33:30.877Z,85.43
2022-10-10T13:36:07.633Z,85.75
2022-10-10T13:38:36.192Z,86.19
2022-10-10T13:41:07.680Z,86.17
2022-10-10T13:43:36.946Z,89.62
2022-10-10T13:46:30.686Z,92.90
2022-10-10T13:49:02.081Z,89.51
2022-10-10T13:51:48.384Z,89.02
2022-10-10T13:54:41.574Z,88.57
2022-10-10T13:57:27.611Z,87.97
2022-10-10T14:00:33.762Z,85.34
2022-10-10T14:03:20.126Z,84.85
2022-10-10T14:05:48.233Z,86.21
2022-10-10T14:08:20.427Z,90.32
2022-10-10T14:11:07.812Z,90.31
2022-10-10T14:13:39.597Z,92.35
2022-10-10T14:16:18.116Z,94.55
2022-10-10T14:18:47.032Z,96.42
2022-10-10T14:21:15.473Z,96.87
2022-10-10T14:23:45.696Z,100.00
2022-10-10T14:26:20.020Z,100.00
2022-10-10T14:28:49.602Z,100.00
2022-10-10T14:31:19.037Z,100.00
2022-10-10T14:33:49.866Z,100.00
2022-10-10T14:36:18.675Z,100.00
2022-10-10T14:38:46.980Z,100.00
2022-10-10T14:41:17.592Z,100.00
2022-10-10T14:43:46.169Z,100.00
2022-10-10T14:46:19.982Z,100.00
2022-10-10T14:48:51.183Z,100.00
2022-10-10T14:51:33.880Z,100.00
2022-10-10T14:54:10.871Z,100.00
2022-10-10T14:57:09.505Z,100.00
2022-10-10T14:59:46.079Z,100.00
2022-10-10T15:02:22.248Z,100.00
2022-10-10T15:04:51.113Z,100.00
2022-10-10T15:07:19.755Z,100.00
2022-10-10T15:10:27.614Z,100.00
2022-10-10T15:12:43.017Z,100.00
2022-10-10T15:15:14.038Z,100.00
2022-10-10T15:17:48.779Z,100.00
2022-10-10T15:20:19.237Z,100.00
2022-10-10T15:22:47.264Z,100.00
2022-10-10T15:25:16.828Z,100.00
2022-10-10T15:27:47.528Z,100.00
2022-10-10T15:30:16.395Z,100.00
2022-10-10T15:32:45.532Z,100.00
2022-10-10T15:35:19.113Z,100.00
2022-10-10T15:37:47.975Z,100.00
2022-10-10T15:40:20.630Z,100.00
2022-10-10T15:42:50.403Z,100.00
2022-10-10T15:45:43.619Z,100.00
2022-10-10T15:48:07.776Z,100.00
2022-10-10T15:50:42.581Z,100.00
2022-10-10T15:53:13.106Z,100.00
2022-10-10T15:55:46.011Z,100.00
2022-10-10T15:58:15.267Z,100.00
2022-10-10T16:00:45.093Z,100.00
2022-10-10T16:03:16.952Z,100.00
2022-10-10T16:05:45.543Z,100.00
2022-10-10T16:08:13.716Z,100.00
2022-10-10T16:10:43.353Z,100.00
2022-10-10T16:13:11.806Z,100.00
2022-10-10T16:15:40.826Z,100.00
2022-10-10T16:18:09.566Z,100.00
2022-10-10T16:20:39.316Z,100.00
2022-10-10T16:23:08.405Z,100.00
2022-10-10T16:25:36.887Z,100.00
2022-10-10T16:28:05.153Z,100.00
2022-10-10T16:30:33.449Z,100.00
2022-10-10T16:33:01.948Z,100.00
2022-10-10T16:35:30.078Z,100.00
2022-10-10T16:38:00.764Z,100.00
2022-10-10T16:40:30.410Z,100.00
2022-10-10T16:43:00.847Z,100.00
2022-10-10T16:45:29.449Z,100.00
2022-10-10T16:47:58.185Z,100.00
2022-10-10T16:50:26.359Z,100.00
2022-10-10T16:52:55.523Z,100.00
2022-10-10T16:55:23.648Z,100.00
2022-10-10T16:57:58.699Z,100.00
2022-10-10T17:00:26.981Z,100.00
2022-10-10T17:02:54.977Z,100.00
2022-10-10T17:05:23.090Z,100.00
2022-10-10T17:07:52.054Z,100.00
2022-10-10T17:10:20.212Z,100.00
2022-10-10T17:12:48.289Z,100.00
2022-10-10T17:15:16.253Z,100.00
2022-10-10T17:17:45.952Z,100.00
2022-10-10T17:20:14.336Z,100.00
2022-10-10T17:22:42.724Z,100.00
2022-10-10T17:25:11.005Z,100.00
2022-10-10T17:27:42.158Z,100.00
2022-10-10T17:30:12.701Z,100.00
2022-10-10T17:32:42.737Z,100.00
2022-10-10T17:35:12.161Z,100.00
2022-10-10T17:37:44.844Z,100.00
2022-10-10T17:40:13.079Z,100.00
2022-10-10T17:42:41.167Z,100.00
2022-10-10T17:45:10.359Z,100.00
2022-10-10T17:47:38.814Z,100.00
2022-10-10T17:50:09.438Z,100.00
2022-10-10T17:52:37.448Z,100.00
2022-10-10T17:55:06.174Z,100.00
2022-10-10T17:57:36.714Z,100.00
2022-10-10T18:00:06.519Z,100.00
2022-10-10T18:02:34.801Z,100.00
2022-10-10T18:05:03.495Z,100.00
2022-10-10T18:07:31.735Z,100.00
2022-10-10T18:09:59.888Z,100.00
2022-10-10T18:12:27.916Z,100.00
2022-10-10T18:14:55.982Z,100.00
2022-10-10T18:17:26.309Z,100.00
2022-10-10T18:19:54.575Z,100.00
2022-10-10T18:22:23.723Z,100.00
2022-10-10T18:24:54.276Z,100.00
2022-10-10T18:27:22.846Z,100.00
2022-10-10T18:29:50.802Z,100.00
2022-10-10T18:32:18.892Z,100.00
2022-10-10T18:34:46.854Z,100.00
2022-10-10T18:37:15.892Z,100.00
2022-10-10T18:39:44.093Z,100.00
2022-10-10T18:42:14.804Z,100.00
2022-10-10T18:44:44.065Z,100.00
2022-10-10T18:47:12.891Z,100.00
2022-10-10T18:49:41.598Z,100.00
2022-10-10T18:52:10.558Z,100.00
2022-10-10T18:54:38.898Z,100.00
2022-10-10T18:57:07.189Z,100.00
2022-10-10T18:59:35.333Z,100.00
2022-10-10T19:02:03.346Z,100.00
2022-10-10T19:04:31.573Z,100.00
2022-10-10T19:07:02.157Z,100.00
2022-10-10T19:09:30.248Z,100.00
2022-10-10T19:11:58.209Z,100.00
2022-10-10T19:14:26.322Z,100.00
2022-10-10T19:16:55.316Z,100.00
2022-10-10T19:19:26.599Z,100.00
2022-10-10T19:21:54.829Z,100.00
2022-10-10T19:24:22.940Z,100.00
2022-10-10T19:26:54.971Z,100.00
2022-10-10T19:29:25.208Z,100.00
2022-10-10T19:31:54.537Z,100.00
2022-10-10T19:34:23.646Z,100.00
2022-10-10T19:36:51.711Z,100.00
2022-10-10T19:39:19.648Z,100.00
2022-10-10T19:41:48.170Z,100.00
2022-10-10T19:44:16.232Z,100.00
2022-10-10T19:46:44.634Z,100.00
2022-10-10T19:49:12.660Z,100.00
2022-10-10T19:51:40.585Z,100.00
2022-10-10T19:54:08.755Z,100.00
2022-10-10T19:56:39.043Z,100.00
2022-10-10T19:59:09.108Z,100.00
2022-10-10T20:01:37.304Z,100.00
2022-10-10T20:04:05.372Z,100.00
2022-10-10T20:06:39.718Z,100.00
2022-10-10T20:09:10.782Z,100.00
2022-10-10T20:11:39.888Z,100.00
2022-10-10T20:14:08.027Z,100.00
2022-10-10T20:16:36.092Z,100.00
2022-10-10T20:19:06.952Z,100.00
2022-10-10T20:21:35.360Z,100.00
2022-10-10T20:24:07.431Z,100.00
2022-10-10T20:26:36.634Z,100.00
2022-10-10T20:29:05.285Z,100.00
2022-10-10T20:31:35.762Z,100.00
2022-10-10T20:34:05.619Z,100.00
2022-10-10T20:36:35.634Z,100.00
2022-10-10T20:39:08.288Z,100.00
2022-10-10T20:41:38.357Z,100.00
2022-10-10T20:44:08.579Z,100.00
2022-10-10T20:46:39.267Z,100.00
2022-10-10T20:49:12.943Z,100.00
2022-10-10T20:51:48.128Z,100.00
2022-10-10T20:54:18.818Z,100.00
2022-10-10T20:56:50.914Z,100.00
2022-10-10T20:59:21.052Z,100.00
2022-10-10T21:01:51.910Z,100.00
2022-10-10T21:04:20.069Z,100.00
2022-10-10T21:06:48.129Z,100.00
2022-10-10T21:09:16.243Z,100.00
2022-10-10T21:11:48.717Z,100.00
2022-10-10T21:14:19.026Z,100.00
2022-10-10T21:16:50.592Z,100.00
2022-10-10T21:19:18.501Z,100.00
2022-10-10T21:21:46.877Z,100.00
2022-10-10T21:24:15.507Z,100.00
2022-10-10T21:26:45.476Z,100.00
2022-10-10T21:29:16.414Z,100.00
2022-10-10T21:31:44.531Z,100.00
2022-10-10T21:34:18.820Z,100.00
2022-10-10T21:36:46.891Z,100.00
2022-10-10T21:39:15.449Z,100.00
2022-10-10T21:41:43.730Z,100.00
2022-10-10T21:44:15.906Z,100.00
2022-10-10T21:46:43.884Z,100.00
2022-10-10T21:49:13.991Z,100.00
2022-10-10T21:51:45.750Z,100.00
2022-10-10T21:54:14.738Z,100.00
2022-10-10T21:56:42.552Z,100.00
2022-10-10T21:59:11.783Z,100.00
2022-10-10T22:01:39.738Z,100.00
2022-10-10T22:04:08.393Z,100.00
2022-10-10T22:06:36.400Z,100.00
2022-10-10T22:09:05.252Z,100.00
2022-10-10T22:11:34.870Z,100.00
2022-10-10T22:14:04.513Z,100.00
2022-10-10T22:16:33.148Z,100.00
2022-10-10T22:19:03.849Z,100.00
2022-10-10T22:21:34.717Z,100.00
2022-10-10T22:24:06.641Z,100.00
2022-10-10T22:26:35.375Z,100.00
2022-10-10T22:29:04.584Z,100.00
2022-10-10T22:31:35.655Z,100.00
2022-10-10T22:34:05.978Z,100.00
2022-10-10T22:36:34.069Z,100.00
2022-10-10T22:39:03.494Z,100.00
2022-10-10T22:41:31.751Z,100.00
2022-10-10T22:43:59.860Z,100.00
2022-10-10T22:46:27.832Z,100.00
2022-10-10T22:48:55.823Z,100.00
2022-10-10T22:51:23.869Z,100.00
2022-10-10T22:53:52.115Z,100.00
2022-10-10T22:56:20.756Z,100.00
2022-10-10T22:58:50.474Z,100.00
2022-10-10T23:01:21.649Z,100.00
2022-10-10T23:03:50.194Z,100.00
2022-10-10T23:06:18.125Z,100.00
2022-10-10T23:08:46.616Z,100.00
2022-10-10T23:11:16.127Z,100.00
2022-10-10T23:13:44.307Z,100.00
2022-10-10T23:16:15.033Z,100.00
2022-10-10T23:18:42.985Z,100.00
2022-10-10T23:21:11.026Z,100.00
2022-10-10T23:23:39.024Z,100.00
2022-10-10T23:26:09.072Z,100.00
2022-10-10T23:28:37.213Z,100.00
2022-10-10T23:31:08.148Z,100.00
2022-10-10T23:33:37.245Z,100.00
2022-10-10T23:36:10.856Z,100.00
2022-10-10T23:38:39.754Z,100.00
2022-10-10T23:41:09.103Z,100.00
2022-10-10T23:43:37.336Z,100.00
2022-10-10T23:46:05.755Z,100.00
2022-10-10T23:48:34.150Z,100.00
2022-10-10T23:51:02.073Z,100.00
2022-10-10T23:53:29.997Z,100.00
2022-10-10T23:55:57.823Z,100.00
2022-10-10T23:58:26.070Z,100.00
